sensor_id;sensor_type;location;lat;lon;timestamp;pressure;altitude;pressure_sealevel;temperature;humidity
37206;BME280;23099;42.636;23.198;2023-04-15T00:00:38;91246.31;;;6.04;100.00
37206;BME280;23099;42.636;23.198;2023-04-15T00:03:05;91249.50;;;6.13;100.00
37206;BME280;23099;42.636;23.198;2023-04-15T00:05:32;91250.34;;;6.17;100.00
37206;BME280;23099;42.636;23.198;2023-04-15T00:07:59;91242.84;;;6.23;100.00
37206;BME280;23099;42.636;23.198;2023-04-15T00:10:26;91250.47;;;6.24;100.00
37206;BME280;23099;42.636;23.198;2023-04-15T00:12:53;91254.78;;;6.32;100.00
37206;BME280;23099;42.636;23.198;2023-04-15T00:15:21;91258.69;;;6.38;100.00
37206;BME280;23099;42.636;23.198;2023-04-15T00:17:49;91254.91;;;6.39;100.00
37206;BME280;23099;42.636;23.198;2023-04-15T00:20:16;91261.91;;;6.48;100.00
37206;BME280;23099;42.636;23.198;2023-04-15T00:22:42;91264.81;;;6.43;100.00
37206;BME280;23099;42.636;23.198;2023-04-15T00:25:09;91264.28;;;6.33;100.00
37206;BME280;23099;42.636;23.198;2023-04-15T00:27:36;91268.28;;;6.24;100.00
37206;BME280;23099;42.636;23.198;2023-04-15T00:30:04;91266.97;;;6.14;100.00
37206;BME280;23099;42.636;23.198;2023-04-15T00:32:32;91261.78;;;6.21;100.00
37206;BME280;23099;42.636;23.198;2023-04-15T00:34:59;91265.28;;;6.25;100.00
37206;BME280;23099;42.636;23.198;2023-04-15T00:37:26;91261.56;;;6.30;100.00
37206;BME280;23099;42.636;23.198;2023-04-15T00:39:53;91260.53;;;6.34;100.00
37206;BME280;23099;42.636;23.198;2023-04-15T00:42:20;91261.25;;;6.35;100.00
37206;BME280;23099;42.636;23.198;2023-04-15T00:44:47;91257.16;;;6.37;100.00
37206;BME280;23099;42.636;23.198;2023-04-15T00:47:15;91250.78;;;6.42;100.00
37206;BME280;23099;42.636;23.198;2023-04-15T00:49:44;91259.03;;;6.37;100.00
37206;BME280;23099;42.636;23.198;2023-04-15T00:52:11;91259.03;;;6.37;100.00
37206;BME280;23099;42.636;23.198;2023-04-15T00:54:38;91265.41;;;6.32;100.00
37206;BME280;23099;42.636;23.198;2023-04-15T00:57:05;91258.50;;;6.28;100.00
37206;BME280;23099;42.636;23.198;2023-04-15T00:59:32;91256.53;;;6.25;100.00
37206;BME280;23099;42.636;23.198;2023-04-15T01:01:59;91256.63;;;6.09;100.00
37206;BME280;23099;42.636;23.198;2023-04-15T01:04:26;91256.06;;;6.00;100.00
37206;BME280;23099;42.636;23.198;2023-04-15T01:06:54;91266.53;;;5.93;100.00
37206;BME280;23099;42.636;23.198;2023-04-15T01:09:21;91262.63;;;5.87;100.00
37206;BME280;23099;42.636;23.198;2023-04-15T01:11:48;91263.50;;;5.91;100.00
37206;BME280;23099;42.636;23.198;2023-04-15T01:14:15;91256.84;;;6.00;100.00
37206;BME280;23099;42.636;23.198;2023-04-15T01:16:42;91258.81;;;6.03;100.00
37206;BME280;23099;42.636;23.198;2023-04-15T01:19:09;91256.50;;;6.02;100.00
37206;BME280;23099;42.636;23.198;2023-04-15T01:21:36;91255.72;;;6.01;100.00
37206;BME280;23099;42.636;23.198;2023-04-15T01:24:08;91255.31;;;5.99;100.00
37206;BME280;23099;42.636;23.198;2023-04-15T01:26:37;91252.59;;;5.96;100.00
37206;BME280;23099;42.636;23.198;2023-04-15T01:29:03;91250.00;;;5.99;100.00
37206;BME280;23099;42.636;23.198;2023-04-15T01:31:31;91251.63;;;6.04;100.00
37206;BME280;23099;42.636;23.198;2023-04-15T01:33:58;91256.16;;;6.03;100.00
37206;BME280;23099;42.636;23.198;2023-04-15T01:36:25;91254.66;;;6.06;100.00
37206;BME280;23099;42.636;23.198;2023-04-15T01:38:52;91253.78;;;5.98;100.00
37206;BME280;23099;42.636;23.198;2023-04-15T01:41:20;91249.94;;;5.96;100.00
37206;BME280;23099;42.636;23.198;2023-04-15T01:43:49;91256.78;;;5.97;100.00
37206;BME280;23099;42.636;23.198;2023-04-15T01:46:16;91259.84;;;5.99;100.00
37206;BME280;23099;42.636;23.198;2023-04-15T01:48:43;91269.75;;;6.02;100.00
37206;BME280;23099;42.636;23.198;2023-04-15T01:51:10;91257.19;;;5.99;100.00
37206;BME280;23099;42.636;23.198;2023-04-15T01:53:37;91257.81;;;5.92;100.00
37206;BME280;23099;42.636;23.198;2023-04-15T01:56:04;91259.50;;;6.00;100.00
37206;BME280;23099;42.636;23.198;2023-04-15T01:58:31;91260.63;;;5.99;100.00
37206;BME280;23099;42.636;23.198;2023-04-15T02:00:59;91256.84;;;6.00;99.77
37206;BME280;23099;42.636;23.198;2023-04-15T02:03:27;91254.03;;;5.93;99.65
37206;BME280;23099;42.636;23.198;2023-04-15T02:05:54;91258.75;;;5.84;99.94
37206;BME280;23099;42.636;23.198;2023-04-15T02:08:21;91253.03;;;5.82;99.72
37206;BME280;23099;42.636;23.198;2023-04-15T02:10:48;91268.25;;;5.85;99.82
37206;BME280;23099;42.636;23.198;2023-04-15T02:13:15;91255.09;;;5.89;99.89
37206;BME280;23099;42.636;23.198;2023-04-15T02:15:46;91266.38;;;5.86;100.00
37206;BME280;23099;42.636;23.198;2023-04-15T02:18:14;91264.41;;;5.83;100.00
37206;BME280;23099;42.636;23.198;2023-04-15T02:20:41;91259.53;;;5.85;100.00
37206;BME280;23099;42.636;23.198;2023-04-15T02:23:09;91250.66;;;5.77;100.00
37206;BME280;23099;42.636;23.198;2023-04-15T02:25:36;91251.94;;;5.83;100.00
37206;BME280;23099;42.636;23.198;2023-04-15T02:28:03;91250.81;;;5.84;99.94
37206;BME280;23099;42.636;23.198;2023-04-15T02:30:30;91246.38;;;5.88;99.73
37206;BME280;23099;42.636;23.198;2023-04-15T02:32:57;91257.66;;;5.85;100.00
37206;BME280;23099;42.636;23.198;2023-04-15T02:35:25;91258.59;;;5.77;99.46
37206;BME280;23099;42.636;23.198;2023-04-15T02:37:52;91265.09;;;5.80;99.78
37206;BME280;23099;42.636;23.198;2023-04-15T02:40:19;91258.47;;;5.70;99.77
37206;BME280;23099;42.636;23.198;2023-04-15T02:42:46;91260.91;;;5.59;100.00
37206;BME280;23099;42.636;23.198;2023-04-15T02:45:13;91257.84;;;5.57;100.00
37206;BME280;23099;42.636;23.198;2023-04-15T02:47:39;91258.63;;;5.58;100.00
37206;BME280;23099;42.636;23.198;2023-04-15T02:50:08;91258.31;;;5.63;100.00
37206;BME280;23099;42.636;23.198;2023-04-15T02:52:38;91256.81;;;5.62;100.00
37206;BME280;23099;42.636;23.198;2023-04-15T02:55:06;91264.50;;;5.51;99.76
37206;BME280;23099;42.636;23.198;2023-04-15T02:57:32;91256.09;;;5.46;100.00
37206;BME280;23099;42.636;23.198;2023-04-15T03:00:01;91265.56;;;5.47;100.00
37206;BME280;23099;42.636;23.198;2023-04-15T03:02:32;91265.16;;;5.45;100.00
37206;BME280;23099;42.636;23.198;2023-04-15T03:04:59;91273.78;;;5.42;99.48
37206;BME280;23099;42.636;23.198;2023-04-15T03:07:26;91280.75;;;5.30;99.89
37206;BME280;23099;42.636;23.198;2023-04-15T03:09:54;91274.19;;;5.09;100.00
37206;BME280;23099;42.636;23.198;2023-04-15T03:12:20;91278.28;;;5.06;100.00
37206;BME280;23099;42.636;23.198;2023-04-15T03:14:47;91290.06;;;5.09;100.00
37206;BME280;23099;42.636;23.198;2023-04-15T03:17:14;91282.31;;;5.16;100.00
37206;BME280;23099;42.636;23.198;2023-04-15T03:19:40;91294.78;;;5.15;100.00
37206;BME280;23099;42.636;23.198;2023-04-15T03:22:07;91293.31;;;5.18;100.00
37206;BME280;23099;42.636;23.198;2023-04-15T03:24:34;91300.56;;;5.05;99.45
37206;BME280;23099;42.636;23.198;2023-04-15T03:27:02;91304.09;;;4.93;98.40
37206;BME280;23099;42.636;23.198;2023-04-15T03:29:30;91305.03;;;4.85;98.97
37206;BME280;23099;42.636;23.198;2023-04-15T03:31:57;91310.41;;;4.73;99.15
37206;BME280;23099;42.636;23.198;2023-04-15T03:34:23;91308.34;;;4.67;100.00
37206;BME280;23099;42.636;23.198;2023-04-15T03:36:50;91311.31;;;4.65;100.00
37206;BME280;23099;42.636;23.198;2023-04-15T03:39:17;91310.28;;;4.54;100.00
37206;BME280;23099;42.636;23.198;2023-04-15T03:41:43;91322.28;;;4.36;100.00
37206;BME280;23099;42.636;23.198;2023-04-15T03:44:12;91323.34;;;4.47;100.00
37206;BME280;23099;42.636;23.198;2023-04-15T03:46:38;91325.63;;;4.33;100.00
37206;BME280;23099;42.636;23.198;2023-04-15T03:49:05;91321.84;;;4.18;100.00
37206;BME280;23099;42.636;23.198;2023-04-15T03:51:32;91313.97;;;4.21;100.00
37206;BME280;23099;42.636;23.198;2023-04-15T03:53:59;91316.94;;;4.32;100.00
37206;BME280;23099;42.636;23.198;2023-04-15T03:56:26;91318.88;;;4.35;100.00
37206;BME280;23099;42.636;23.198;2023-04-15T03:58:53;91320.28;;;4.45;100.00
37206;BME280;23099;42.636;23.198;2023-04-15T04:01:21;91317.03;;;4.51;100.00
37206;BME280;23099;42.636;23.198;2023-04-15T04:03:48;91320.63;;;4.59;100.00
37206;BME280;23099;42.636;23.198;2023-04-15T04:06:15;91326.38;;;4.61;100.00
37206;BME280;23099;42.636;23.198;2023-04-15T04:08:41;91321.91;;;4.65;100.00
37206;BME280;23099;42.636;23.198;2023-04-15T04:11:08;91329.84;;;4.65;100.00
37206;BME280;23099;42.636;23.198;2023-04-15T04:13:35;91329.44;;;4.79;100.00
37206;BME280;23099;42.636;23.198;2023-04-15T04:16:02;91321.84;;;4.77;100.00
37206;BME280;23099;42.636;23.198;2023-04-15T04:18:31;91331.31;;;4.78;100.00
37206;BME280;23099;42.636;23.198;2023-04-15T04:20:59;91328.75;;;4.82;100.00
37206;BME280;23099;42.636;23.198;2023-04-15T04:23:26;91331.94;;;4.87;100.00
37206;BME280;23099;42.636;23.198;2023-04-15T04:25:53;91332.72;;;4.88;100.00
37206;BME280;23099;42.636;23.198;2023-04-15T04:28:20;91336.28;;;4.80;100.00
37206;BME280;23099;42.636;23.198;2023-04-15T04:30:46;91330.41;;;4.86;100.00
37206;BME280;23099;42.636;23.198;2023-04-15T04:33:13;91333.63;;;4.80;100.00
37206;BME280;23099;42.636;23.198;2023-04-15T04:35:41;91332.63;;;4.84;100.00
37206;BME280;23099;42.636;23.198;2023-04-15T04:38:08;91328.59;;;4.75;100.00
37206;BME280;23099;42.636;23.198;2023-04-15T04:40:34;91339.03;;;4.83;100.00
37206;BME280;23099;42.636;23.198;2023-04-15T04:43:01;91340.31;;;4.89;100.00
37206;BME280;23099;42.636;23.198;2023-04-15T04:45:28;91339.78;;;4.84;100.00
37206;BME280;23099;42.636;23.198;2023-04-15T04:47:55;91337.81;;;4.81;100.00
37206;BME280;23099;42.636;23.198;2023-04-15T04:50:21;91334.72;;;4.79;100.00
37206;BME280;23099;42.636;23.198;2023-04-15T04:52:49;91346.63;;;4.85;100.00
37206;BME280;23099;42.636;23.198;2023-04-15T04:55:16;91351.16;;;4.84;100.00
37206;BME280;23099;42.636;23.198;2023-04-15T04:57:43;91357.31;;;4.88;100.00
37206;BME280;23099;42.636;23.198;2023-04-15T05:00:11;91352.94;;;4.80;100.00
37206;BME280;23099;42.636;23.198;2023-04-15T05:02:38;91354.31;;;4.90;100.00
37206;BME280;23099;42.636;23.198;2023-04-15T05:05:06;91355.09;;;4.90;100.00
37206;BME280;23099;42.636;23.198;2023-04-15T05:07:33;91365.25;;;4.88;100.00
37206;BME280;23099;42.636;23.198;2023-04-15T05:10:01;91367.81;;;4.85;100.00
37206;BME280;23099;42.636;23.198;2023-04-15T05:12:28;91367.47;;;4.86;100.00
37206;BME280;23099;42.636;23.198;2023-04-15T05:14:54;91380.44;;;4.91;100.00
37206;BME280;23099;42.636;23.198;2023-04-15T05:17:21;91379.53;;;5.00;100.00
37206;BME280;23099;42.636;23.198;2023-04-15T05:19:48;91374.38;;;5.07;100.00
37206;BME280;23099;42.636;23.198;2023-04-15T05:22:14;91370.97;;;5.22;100.00
37206;BME280;23099;42.636;23.198;2023-04-15T05:24:41;91369.97;;;5.26;100.00
37206;BME280;23099;42.636;23.198;2023-04-15T05:27:09;91368.31;;;5.38;100.00
37206;BME280;23099;42.636;23.198;2023-04-15T05:29:36;91372.25;;;5.44;100.00
37206;BME280;23099;42.636;23.198;2023-04-15T05:32:02;91358.13;;;5.55;100.00
37206;BME280;23099;42.636;23.198;2023-04-15T05:34:29;91368.19;;;5.65;100.00
37206;BME280;23099;42.636;23.198;2023-04-15T05:36:56;91367.31;;;5.77;100.00
37206;BME280;23099;42.636;23.198;2023-04-15T05:39:23;91371.50;;;5.94;100.00
37206;BME280;23099;42.636;23.198;2023-04-15T05:41:49;91368.03;;;6.09;100.00
37206;BME280;23099;42.636;23.198;2023-04-15T05:44:17;91380.28;;;6.33;95.70
37206;BME280;23099;42.636;23.198;2023-04-15T05:46:44;91384.81;;;6.52;93.30
37206;BME280;23099;42.636;23.198;2023-04-15T05:49:11;91385.50;;;6.68;93.11
37206;BME280;23099;42.636;23.198;2023-04-15T05:51:38;91380.25;;;6.91;89.24
37206;BME280;23099;42.636;23.198;2023-04-15T05:54:04;91373.25;;;7.02;86.26
37206;BME280;23099;42.636;23.198;2023-04-15T05:56:31;91387.47;;;7.13;84.48
37206;BME280;23099;42.636;23.198;2023-04-15T05:58:58;91389.50;;;7.20;84.54
37206;BME280;23099;42.636;23.198;2023-04-15T06:01:26;91387.38;;;7.29;81.45
37206;BME280;23099;42.636;23.198;2023-04-15T06:03:53;91392.56;;;7.44;81.15
37206;BME280;23099;42.636;23.198;2023-04-15T06:06:19;91389.66;;;7.53;75.03
37206;BME280;23099;42.636;23.198;2023-04-15T06:08:46;91385.88;;;7.54;78.09
37206;BME280;23099;42.636;23.198;2023-04-15T06:11:13;91391.34;;;7.65;76.98
37206;BME280;23099;42.636;23.198;2023-04-15T06:13:40;91396.44;;;7.73;78.17
37206;BME280;23099;42.636;23.198;2023-04-15T06:16:06;91402.59;;;7.77;76.48
37206;BME280;23099;42.636;23.198;2023-04-15T06:18:34;91412.63;;;7.88;75.04
37206;BME280;23099;42.636;23.198;2023-04-15T06:21:01;91415.00;;;7.93;76.79
37206;BME280;23099;42.636;23.198;2023-04-15T06:23:28;91418.88;;;7.99;77.02
37206;BME280;23099;42.636;23.198;2023-04-15T06:25:55;91420.88;;;8.05;76.29
37206;BME280;23099;42.636;23.198;2023-04-15T06:28:21;91423.69;;;8.16;73.06
37206;BME280;23099;42.636;23.198;2023-04-15T06:30:48;91424.94;;;8.22;74.21
37206;BME280;23099;42.636;23.198;2023-04-15T06:33:15;91434.22;;;8.32;72.63
37206;BME280;23099;42.636;23.198;2023-04-15T06:35:43;91434.63;;;8.34;72.86
37206;BME280;23099;42.636;23.198;2023-04-15T06:38:10;91434.34;;;8.42;73.91
37206;BME280;23099;42.636;23.198;2023-04-15T06:40:36;91446.59;;;8.47;71.91
37206;BME280;23099;42.636;23.198;2023-04-15T06:43:03;91439.44;;;8.55;71.73
37206;BME280;23099;42.636;23.198;2023-04-15T06:45:30;91444.53;;;8.67;73.73
37206;BME280;23099;42.636;23.198;2023-04-15T06:47:56;91445.88;;;8.80;74.20
37206;BME280;23099;42.636;23.198;2023-04-15T06:50:23;91441.44;;;8.91;69.51
37206;BME280;23099;42.636;23.198;2023-04-15T06:52:52;91436.19;;;8.98;66.91
37206;BME280;23099;42.636;23.198;2023-04-15T06:55:19;91439.00;;;9.12;71.02
37206;BME280;23099;42.636;23.198;2023-04-15T06:57:45;91437.22;;;9.23;67.48
37206;BME280;23099;42.636;23.198;2023-04-15T07:00:13;91440.78;;;9.38;67.87
37206;BME280;23099;42.636;23.198;2023-04-15T07:02:40;91450.81;;;9.48;68.60
37206;BME280;23099;42.636;23.198;2023-04-15T07:05:06;91445.16;;;9.57;68.44
37206;BME280;23099;42.636;23.198;2023-04-15T07:07:34;91439.41;;;9.51;69.24
37206;BME280;23099;42.636;23.198;2023-04-15T07:10:03;91435.63;;;9.56;69.90
37206;BME280;23099;42.636;23.198;2023-04-15T07:12:30;91449.38;;;9.58;69.18
37206;BME280;23099;42.636;23.198;2023-04-15T07:14:57;91444.44;;;9.60;67.19
37206;BME280;23099;42.636;23.198;2023-04-15T07:17:23;91451.00;;;9.70;68.36
37206;BME280;23099;42.636;23.198;2023-04-15T07:19:50;91457.50;;;9.72;68.60
37206;BME280;23099;42.636;23.198;2023-04-15T07:22:17;91458.72;;;9.82;69.70
37206;BME280;23099;42.636;23.198;2023-04-15T07:24:45;91454.97;;;9.86;68.74
37206;BME280;23099;42.636;23.198;2023-04-15T07:27:13;91458.94;;;10.03;67.38
37206;BME280;23099;42.636;23.198;2023-04-15T07:29:40;91461.03;;;10.24;67.45
37206;BME280;23099;42.636;23.198;2023-04-15T07:32:06;91470.63;;;10.32;62.15
37206;BME280;23099;42.636;23.198;2023-04-15T07:34:34;91462.19;;;10.26;62.73
37206;BME280;23099;42.636;23.198;2023-04-15T07:37:01;91464.09;;;10.30;58.82
37206;BME280;23099;42.636;23.198;2023-04-15T07:39:28;91450.13;;;10.50;61.75
37206;BME280;23099;42.636;23.198;2023-04-15T07:41:55;91451.69;;;10.55;63.32
37206;BME280;23099;42.636;23.198;2023-04-15T07:44:25;91459.81;;;10.76;62.27
37206;BME280;23099;42.636;23.198;2023-04-15T07:46:52;91458.78;;;10.95;63.51
37206;BME280;23099;42.636;23.198;2023-04-15T07:49:18;91462.66;;;11.12;60.38
37206;BME280;23099;42.636;23.198;2023-04-15T07:51:45;91462.22;;;10.99;62.00
37206;BME280;23099;42.636;23.198;2023-04-15T07:54:13;91466.06;;;11.05;62.18
37206;BME280;23099;42.636;23.198;2023-04-15T07:56:39;91465.78;;;11.31;63.74
37206;BME280;23099;42.636;23.198;2023-04-15T07:59:06;91473.13;;;11.49;61.24
37206;BME280;23099;42.636;23.198;2023-04-15T08:01:35;91467.44;;;11.68;59.35
37206;BME280;23099;42.636;23.198;2023-04-15T08:04:02;91478.56;;;11.88;59.49
37206;BME280;23099;42.636;23.198;2023-04-15T08:06:28;91478.19;;;11.89;55.36
37206;BME280;23099;42.636;23.198;2023-04-15T08:08:55;91491.19;;;11.77;57.76
37206;BME280;23099;42.636;23.198;2023-04-15T08:11:22;91487.31;;;11.74;59.05
37206;BME280;23099;42.636;23.198;2023-04-15T08:13:48;91484.72;;;12.02;59.40
37206;BME280;23099;42.636;23.198;2023-04-15T08:16:17;91491.22;;;12.05;59.31
37206;BME280;23099;42.636;23.198;2023-04-15T08:18:46;91476.31;;;12.36;56.12
37206;BME280;23099;42.636;23.198;2023-04-15T08:21:13;91486.28;;;12.21;53.66
37206;BME280;23099;42.636;23.198;2023-04-15T08:23:40;91486.63;;;12.02;57.59
37206;BME280;23099;42.636;23.198;2023-04-15T08:26:07;91478.25;;;12.11;54.02
37206;BME280;23099;42.636;23.198;2023-04-15T08:28:34;91482.03;;;12.13;55.40
37206;BME280;23099;42.636;23.198;2023-04-15T08:31:01;91488.19;;;12.17;50.62
37206;BME280;23099;42.636;23.198;2023-04-15T08:33:28;91482.44;;;12.33;53.42
37206;BME280;23099;42.636;23.198;2023-04-15T08:35:56;91477.84;;;12.48;49.02
37206;BME280;23099;42.636;23.198;2023-04-15T08:38:23;91469.41;;;12.60;48.98
37206;BME280;23099;42.636;23.198;2023-04-15T08:40:49;91475.16;;;12.62;47.15
37206;BME280;23099;42.636;23.198;2023-04-15T08:43:20;91453.69;;;12.58;49.13
37206;BME280;23099;42.636;23.198;2023-04-15T08:45:51;91465.16;;;12.73;49.90
37206;BME280;23099;42.636;23.198;2023-04-15T08:48:18;91473.63;;;12.68;47.36
37206;BME280;23099;42.636;23.198;2023-04-15T08:50:46;91471.34;;;12.52;47.41
37206;BME280;23099;42.636;23.198;2023-04-15T08:53:14;91465.56;;;12.68;47.53
37206;BME280;23099;42.636;23.198;2023-04-15T08:55:41;91468.28;;;12.50;49.27
37206;BME280;23099;42.636;23.198;2023-04-15T08:58:09;91476.69;;;12.63;52.52
37206;BME280;23099;42.636;23.198;2023-04-15T09:00:36;91465.56;;;12.75;50.12
37206;BME280;23099;42.636;23.198;2023-04-15T09:03:03;91459.78;;;12.98;49.09
37206;BME280;23099;42.636;23.198;2023-04-15T09:05:31;91457.81;;;13.13;47.37
37206;BME280;23099;42.636;23.198;2023-04-15T09:07:58;91461.56;;;13.33;47.15
37206;BME280;23099;42.636;23.198;2023-04-15T09:10:26;91460.34;;;13.55;48.27
37206;BME280;23099;42.636;23.198;2023-04-15T09:12:53;91461.81;;;13.63;45.34
37206;BME280;23099;42.636;23.198;2023-04-15T09:15:20;91453.31;;;13.72;43.63
37206;BME280;23099;42.636;23.198;2023-04-15T09:17:48;91456.91;;;13.51;43.62
37206;BME280;23099;42.636;23.198;2023-04-15T09:20:15;91446.94;;;13.44;43.13
37206;BME280;23099;42.636;23.198;2023-04-15T09:22:44;91450.03;;;13.43;45.15
37206;BME280;23099;42.636;23.198;2023-04-15T09:25:28;91448.91;;;13.37;45.01
37206;BME280;23099;42.636;23.198;2023-04-15T09:27:56;91453.50;;;13.40;39.76
37206;BME280;23099;42.636;23.198;2023-04-15T09:30:23;91456.22;;;13.29;39.37
37206;BME280;23099;42.636;23.198;2023-04-15T09:32:51;91462.28;;;13.48;41.10
37206;BME280;23099;42.636;23.198;2023-04-15T09:35:19;91457.97;;;13.68;40.99
37206;BME280;23099;42.636;23.198;2023-04-15T09:37:46;91452.22;;;13.66;38.62
37206;BME280;23099;42.636;23.198;2023-04-15T09:40:13;91451.69;;;13.92;39.85
37206;BME280;23099;42.636;23.198;2023-04-15T09:42:54;91465.22;;;13.71;40.33
37206;BME280;23099;42.636;23.198;2023-04-15T09:45:22;91463.59;;;13.91;39.96
37206;BME280;23099;42.636;23.198;2023-04-15T09:47:49;91468.13;;;14.01;39.52
37206;BME280;23099;42.636;23.198;2023-04-15T09:50:17;91467.78;;;13.96;39.47
37206;BME280;23099;42.636;23.198;2023-04-15T09:52:45;91482.47;;;13.73;39.42
37206;BME280;23099;42.636;23.198;2023-04-15T09:55:12;91465.78;;;13.34;39.27
37206;BME280;23099;42.636;23.198;2023-04-15T09:57:39;91473.78;;;13.48;40.58
37206;BME280;23099;42.636;23.198;2023-04-15T10:00:10;91483.75;;;13.55;39.85
37206;BME280;23099;42.636;23.198;2023-04-15T10:02:39;91484.91;;;13.54;41.26
37206;BME280;23099;42.636;23.198;2023-04-15T10:05:07;91476.84;;;13.47;41.23
37206;BME280;23099;42.636;23.198;2023-04-15T10:07:37;91481.78;;;13.59;41.19
37206;BME280;23099;42.636;23.198;2023-04-15T10:10:06;91465.13;;;13.89;39.72
37206;BME280;23099;42.636;23.198;2023-04-15T10:12:33;91460.88;;;13.95;39.87
37206;BME280;23099;42.636;23.198;2023-04-15T10:15:03;91451.66;;;13.96;39.91
37206;BME280;23099;42.636;23.198;2023-04-15T10:17:33;91446.88;;;14.21;37.65
37206;BME280;23099;42.636;23.198;2023-04-15T10:20:02;91438.22;;;14.51;37.28
37206;BME280;23099;42.636;23.198;2023-04-15T10:22:30;91444.16;;;14.73;38.78
37206;BME280;23099;42.636;23.198;2023-04-15T10:24:57;91448.16;;;14.95;38.33
37206;BME280;23099;42.636;23.198;2023-04-15T10:27:24;91444.31;;;14.96;37.62
37206;BME280;23099;42.636;23.198;2023-04-15T10:29:51;91431.94;;;14.65;38.80
37206;BME280;23099;42.636;23.198;2023-04-15T10:32:19;91437.75;;;14.60;40.63
37206;BME280;23099;42.636;23.198;2023-04-15T10:34:48;91441.16;;;14.64;38.32
37206;BME280;23099;42.636;23.198;2023-04-15T10:37:20;91438.31;;;14.81;37.92
37206;BME280;23099;42.636;23.198;2023-04-15T10:39:47;91432.19;;;14.77;38.37
37206;BME280;23099;42.636;23.198;2023-04-15T10:42:16;91442.31;;;14.63;38.58
37206;BME280;23099;42.636;23.198;2023-04-15T10:44:45;91444.50;;;14.78;38.20
37206;BME280;23099;42.636;23.198;2023-04-15T10:47:15;91439.44;;;14.84;40.05
37206;BME280;23099;42.636;23.198;2023-04-15T10:49:46;91434.53;;;15.13;40.29
37206;BME280;23099;42.636;23.198;2023-04-15T10:52:17;91438.34;;;15.46;39.98
37206;BME280;23099;42.636;23.198;2023-04-15T10:54:44;91434.63;;;15.36;38.57
37206;BME280;23099;42.636;23.198;2023-04-15T10:57:15;91440.19;;;15.56;39.79
37206;BME280;23099;42.636;23.198;2023-04-15T11:00:03;91436.44;;;15.77;37.30
37206;BME280;23099;42.636;23.198;2023-04-15T11:02:40;91432.59;;;15.44;37.19
37206;BME280;23099;42.636;23.198;2023-04-15T11:05:07;91433.34;;;15.48;36.56
37206;BME280;23099;42.636;23.198;2023-04-15T11:07:41;91441.38;;;15.51;37.54
37206;BME280;23099;42.636;23.198;2023-04-15T11:13:15;91429.53;;;16.03;37.41
37206;BME280;23099;42.636;23.198;2023-04-15T11:15:43;91425.63;;;16.07;36.34
37206;BME280;23099;42.636;23.198;2023-04-15T11:18:11;91416.31;;;16.12;36.72
37206;BME280;23099;42.636;23.198;2023-04-15T11:20:40;91414.63;;;16.21;35.11
37206;BME280;23099;42.636;23.198;2023-04-15T11:23:08;91423.94;;;16.17;35.16
37206;BME280;23099;42.636;23.198;2023-04-15T11:25:35;91415.75;;;16.24;34.05
37206;BME280;23099;42.636;23.198;2023-04-15T11:28:03;91422.63;;;16.02;34.89
37206;BME280;23099;42.636;23.198;2023-04-15T11:30:31;91424.75;;;15.87;36.18
37206;BME280;23099;42.636;23.198;2023-04-15T11:32:59;91424.81;;;15.83;35.49
37206;BME280;23099;42.636;23.198;2023-04-15T11:35:27;91425.03;;;15.69;35.25
37206;BME280;23099;42.636;23.198;2023-04-15T11:37:54;91418.34;;;15.77;34.07
37206;BME280;23099;42.636;23.198;2023-04-15T11:40:23;91408.34;;;16.05;35.86
37206;BME280;23099;42.636;23.198;2023-04-15T11:43:03;91415.34;;;16.25;33.73
37206;BME280;23099;42.636;23.198;2023-04-15T11:45:30;91408.56;;;16.41;34.53
37206;BME280;23099;42.636;23.198;2023-04-15T11:48:04;91404.63;;;16.69;34.77
37206;BME280;23099;42.636;23.198;2023-04-15T11:50:32;91407.84;;;16.83;33.36
37206;BME280;23099;42.636;23.198;2023-04-15T11:53:00;91404.91;;;16.74;34.05
37206;BME280;23099;42.636;23.198;2023-04-15T11:55:28;91409.63;;;16.70;33.14
37206;BME280;23099;42.636;23.198;2023-04-15T11:58:04;91406.13;;;16.73;33.13
37206;BME280;23099;42.636;23.198;2023-04-15T12:00:32;91417.13;;;16.82;33.88
37206;BME280;23099;42.636;23.198;2023-04-15T12:03:11;91412.22;;;16.97;31.35
37206;BME280;23099;42.636;23.198;2023-04-15T12:06:02;91397.94;;;16.77;33.20
37206;BME280;23099;42.636;23.198;2023-04-15T12:08:50;91406.16;;;16.70;33.18
37206;BME280;23099;42.636;23.198;2023-04-15T12:11:20;91405.34;;;16.73;33.22
37206;BME280;23099;42.636;23.198;2023-04-15T12:13:48;91415.59;;;16.81;34.71
37206;BME280;23099;42.636;23.198;2023-04-15T12:16:17;91413.00;;;16.51;31.52
37206;BME280;23099;42.636;23.198;2023-04-15T12:18:45;91408.47;;;16.21;32.44
37206;BME280;23099;42.636;23.198;2023-04-15T12:21:12;91412.28;;;16.23;34.27
37206;BME280;23099;42.636;23.198;2023-04-15T12:23:39;91407.25;;;16.25;33.50
37206;BME280;23099;42.636;23.198;2023-04-15T12:26:13;91397.00;;;16.40;32.86
37206;BME280;23099;42.636;23.198;2023-04-15T12:28:41;91404.31;;;16.40;32.60
37206;BME280;23099;42.636;23.198;2023-04-15T12:31:08;91408.19;;;16.39;31.53
37206;BME280;23099;42.636;23.198;2023-04-15T12:33:35;91410.75;;;16.22;32.06
37206;BME280;23099;42.636;23.198;2023-04-15T12:36:02;91405.22;;;16.06;30.02
37206;BME280;23099;42.636;23.198;2023-04-15T12:38:30;91409.75;;;16.13;31.87
37206;BME280;23099;42.636;23.198;2023-04-15T12:40:57;91416.88;;;16.26;32.11
37206;BME280;23099;42.636;23.198;2023-04-15T12:43:24;91413.69;;;16.08;30.06
37206;BME280;23099;42.636;23.198;2023-04-15T12:45:52;91413.09;;;16.20;32.69
37206;BME280;23099;42.636;23.198;2023-04-15T12:48:18;91420.72;;;16.25;32.65
37206;BME280;23099;42.636;23.198;2023-04-15T12:50:45;91417.81;;;16.40;33.46
37206;BME280;23099;42.636;23.198;2023-04-15T12:53:12;91407.44;;;16.38;32.73
37206;BME280;23099;42.636;23.198;2023-04-15T12:55:38;91413.59;;;16.39;32.48
37206;BME280;23099;42.636;23.198;2023-04-15T12:58:05;91420.69;;;16.52;32.33